createdAt,value
2022-11-03T00:01:55.585Z,12.27
2022-11-03T00:04:22.905Z,11.10
2022-11-03T00:06:51.367Z,14.35
2022-11-03T00:09:18.810Z,15.00
2022-11-03T00:11:46.848Z,12.65
2022-11-03T00:14:14.695Z,11.98
2022-11-03T00:16:41.147Z,15.73
2022-11-03T00:19:08.410Z,13.38
2022-11-03T00:21:34.680Z,17.75
2022-11-03T00:24:02.853Z,15.48
2022-11-03T00:26:31.288Z,13.10
2022-11-03T00:29:02.616Z,17.73
2022-11-03T00:31:34.797Z,12.25
2022-11-03T00:34:02.230Z,13.98
2022-11-03T00:36:30.869Z,12.90
2022-11-03T00:38:57.363Z,11.05
2022-11-03T00:41:24.437Z,14.02
2022-11-03T00:43:51.561Z,12.05
2022-11-03T00:46:19.251Z,12.98
2022-11-03T00:48:45.366Z,19.20
2022-11-03T00:51:23.351Z,15.88
2022-11-03T00:53:58.339Z,17.73
2022-11-03T00:56:33.366Z,12.98
2022-11-03T00:59:01.626Z,12.13
2022-11-03T01:01:33.126Z,16.15
2022-11-03T01:04:18.115Z,10.18
2022-11-03T01:06:50.257Z,18.63
2022-11-03T01:09:22.164Z,10.57
2022-11-03T01:12:11.444Z,13.30
2022-11-03T01:14:52.041Z,16.73
2022-11-03T01:17:26.511Z,17.45
2022-11-03T01:19:53.354Z,13.68
2022-11-03T01:22:20.046Z,15.35
2022-11-03T01:24:47.049Z,16.55
2022-11-03T01:27:16.143Z,13.40
2022-11-03T01:29:42.406Z,17.33
2022-11-03T01:32:09.111Z,13.18
2022-11-03T01:34:35.539Z,18.35
2022-11-03T01:37:01.967Z,14.85
2022-11-03T01:39:28.344Z,15.93
2022-11-03T01:41:54.641Z,15.82
2022-11-03T01:44:26.694Z,14.23
2022-11-03T01:47:25.200Z,14.20
2022-11-03T01:49:58.180Z,14.90
2022-11-03T01:52:54.753Z,15.45
2022-11-03T01:55:24.788Z,12.00
2022-11-03T01:57:55.972Z,12.57
2022-11-03T02:00:22.167Z,12.57
2022-11-03T02:02:48.442Z,15.40
2022-11-03T02:05:19.703Z,13.45
2022-11-03T02:07:57.007Z,15.70
2022-11-03T02:10:24.041Z,16.52
2022-11-03T02:12:50.237Z,14.07
2022-11-03T02:15:19.272Z,10.07
2022-11-03T02:17:47.924Z,11.85
2022-11-03T02:20:19.653Z,13.50
2022-11-03T02:22:51.553Z,15.25
2022-11-03T02:25:37.834Z,11.05
2022-11-03T02:28:05.825Z,14.13
2022-11-03T02:30:39.042Z,14.00
2022-11-03T02:33:18.545Z,15.45
2022-11-03T02:36:05.369Z,10.55
2022-11-03T02:38:36.362Z,17.75
2022-11-03T02:41:07.678Z,11.77
2022-11-03T02:43:34.726Z,11.48
2022-11-03T02:46:04.636Z,11.57
2022-11-03T02:48:30.823Z,16.88
2022-11-03T02:50:56.984Z,16.45
2022-11-03T02:53:23.110Z,15.70
2022-11-03T02:56:01.652Z,15.50
2022-11-03T02:58:38.581Z,15.73
2022-11-03T03:01:48.439Z,18.15
2022-11-03T03:04:24.482Z,18.95
2022-11-03T03:07:04.756Z,13.77
2022-11-03T03:09:37.370Z,11.52
2022-11-03T03:12:05.269Z,15.23
2022-11-03T03:14:37.128Z,17.77
2022-11-03T03:17:13.602Z,20.15
2022-11-03T03:19:56.651Z,16.90
2022-11-03T03:22:45.815Z,15.77
2022-11-03T03:25:17.955Z,13.82
2022-11-03T03:27:49.472Z,14.38
2022-11-03T03:30:17.429Z,13.77
2022-11-03T03:32:47.518Z,16.17
2022-11-03T03:35:21.148Z,19.23
2022-11-03T03:37:51.072Z,15.30
2022-11-03T03:40:23.304Z,15.98
2022-11-03T03:42:51.743Z,16.70
2022-11-03T03:45:19.513Z,16.08
2022-11-03T03:47:46.830Z,14.45
2022-11-03T03:50:13.240Z,17.05
2022-11-03T03:52:39.434Z,16.48
2022-11-03T03:55:12.522Z,14.63
2022-11-03T03:57:38.654Z,15.25
2022-11-03T04:00:06.381Z,15.02
2022-11-03T04:02:38.520Z,17.83
2022-11-03T04:05:05.112Z,13.55
2022-11-03T04:07:49.823Z,19.38
2022-11-03T04:10:21.742Z,19.92
2022-11-03T04:13:07.016Z,16.40
2022-11-03T04:15:51.955Z,16.23
2022-11-03T04:18:40.500Z,12.73
2022-11-03T04:21:25.627Z,11.32
2022-11-03T04:23:53.253Z,13.82
2022-11-03T04:26:23.076Z,16.38
2022-11-03T04:28:50.625Z,12.23
2022-11-03T04:31:18.103Z,15.48
2022-11-03T04:33:44.918Z,17.77
2022-11-03T04:36:19.443Z,14.20
2022-11-03T04:38:46.005Z,17.00
2022-11-03T04:41:21.407Z,15.32
2022-11-03T04:43:48.220Z,14.27
2022-11-03T04:46:17.916Z,18.35
2022-11-03T04:48:44.683Z,15.32
2022-11-03T04:51:17.167Z,17.77
2022-11-03T04:54:18.679Z,14.27
2022-11-03T04:56:44.846Z,15.75
2022-11-03T04:59:12.943Z,18.33
2022-11-03T05:01:39.147Z,10.40
2022-11-03T05:04:12.597Z,16.48
2022-11-03T05:06:38.758Z,16.50
2022-11-03T05:09:17.958Z,15.73
2022-11-03T05:11:46.143Z,22.25
2022-11-03T05:14:18.820Z,15.30
2022-11-03T05:16:45.265Z,13.48
2022-11-03T05:19:22.653Z,10.98
2022-11-03T05:21:50.581Z,15.05
2022-11-03T05:24:21.188Z,15.93
2022-11-03T05:26:48.463Z,14.73
2022-11-03T05:29:18.823Z,14.88
2022-11-03T05:31:47.983Z,14.90
2022-11-03T05:34:36.296Z,16.90
2022-11-03T05:37:26.848Z,17.85
2022-11-03T05:39:56.859Z,16.65
2022-11-03T05:42:22.900Z,18.42
2022-11-03T05:44:51.722Z,18.40
2022-11-03T05:47:24.468Z,17.45
2022-11-03T05:49:56.527Z,23.40
2022-11-03T05:52:25.328Z,13.25
2022-11-03T05:54:53.501Z,14.60
2022-11-03T05:57:20.210Z,19.63
2022-11-03T05:59:49.094Z,20.13
2022-11-03T06:02:38.507Z,19.33
2022-11-03T06:05:20.065Z,13.25
2022-11-03T06:07:47.432Z,16.48
2022-11-03T06:10:31.356Z,21.60
2022-11-03T06:13:04.821Z,21.98
2022-11-03T06:15:34.206Z,19.05
2022-11-03T06:18:02.889Z,16.73
2022-11-03T06:20:29.220Z,16.95
2022-11-03T06:22:57.459Z,18.50
2022-11-03T06:25:32.822Z,20.38
2022-11-03T06:28:06.581Z,16.88
2022-11-03T06:30:36.043Z,21.27
2022-11-03T06:33:11.091Z,18.65
2022-11-03T06:35:37.231Z,16.83
2022-11-03T06:38:03.344Z,20.00
2022-11-03T06:40:34.126Z,18.33
2022-11-03T06:43:08.763Z,17.05
2022-11-03T06:45:35.029Z,16.65
2022-11-03T06:48:02.775Z,20.45
2022-11-03T06:50:31.742Z,20.50
2022-11-03T06:52:59.580Z,24.15
2022-11-03T06:55:28.308Z,20.00
2022-11-03T06:58:23.528Z,23.75
2022-11-03T07:00:51.692Z,21.90
2022-11-03T07:03:23.141Z,21.13
2022-11-03T07:05:49.307Z,17.20
2022-11-03T07:08:35.324Z,19.77
2022-11-03T07:11:01.408Z,17.52
2022-11-03T07:13:28.498Z,20.05
2022-11-03T07:15:54.696Z,24.02
2022-11-03T07:18:38.833Z,20.08
2022-11-03T07:21:26.001Z,23.27
2022-11-03T07:23:52.449Z,21.52
2022-11-03T07:26:18.760Z,24.73
2022-11-03T07:28:44.872Z,19.33
2022-11-03T07:31:18.928Z,23.45
2022-11-03T07:33:45.525Z,23.90
2022-11-03T07:36:19.714Z,22.60
2022-11-03T07:38:50.565Z,24.13
2022-11-03T07:41:22.191Z,20.10
2022-11-03T07:43:53.818Z,17.02
2022-11-03T07:46:21.551Z,14.75
2022-11-03T07:48:49.349Z,29.00
2022-11-03T07:51:28.653Z,16.63
2022-11-03T07:54:09.377Z,14.30
2022-11-03T07:56:43.310Z,17.40
2022-11-03T07:59:09.401Z,18.15
2022-11-03T08:01:40.580Z,19.40
2022-11-03T08:04:20.025Z,15.43
2022-11-03T08:06:46.357Z,11.98
2022-11-03T08:09:12.865Z,23.10
2022-11-03T08:11:39.542Z,18.88
2022-11-03T08:14:05.657Z,11.90
2022-11-03T08:16:31.809Z,20.33
2022-11-03T08:18:57.930Z,12.68
2022-11-03T08:21:24.180Z,14.88
2022-11-03T08:23:50.882Z,13.63
2022-11-03T08:26:17.003Z,13.40
2022-11-03T08:28:43.127Z,15.52
2022-11-03T08:31:12.681Z,10.48
2022-11-03T08:33:39.659Z,11.93
2022-11-03T08:36:06.099Z,13.45
2022-11-03T08:38:32.450Z,15.00
2022-11-03T08:40:58.844Z,11.57
2022-11-03T08:43:25.155Z,11.15
2022-11-03T08:45:53.757Z,13.73
2022-11-03T08:48:21.040Z,11.07
2022-11-03T08:50:48.102Z,11.23
2022-11-03T08:53:14.226Z,7.40
2022-11-03T08:55:40.336Z,10.93
2022-11-03T08:58:07.257Z,13.90
2022-11-03T09:00:38.305Z,10.13
2022-11-03T09:03:06.798Z,11.98
2022-11-03T09:05:32.942Z,9.27
2022-11-03T09:10:45.927Z,5.40
2022-11-03T09:13:12.030Z,7.25
2022-11-03T09:15:38.169Z,7.95
2022-11-03T09:18:04.594Z,15.57
2022-11-03T09:20:31.679Z,6.80
2022-11-03T09:22:57.951Z,6.10
2022-11-03T09:25:24.077Z,8.52
2022-11-03T09:27:50.185Z,5.13
2022-11-03T09:30:17.788Z,8.10
2022-11-03T09:32:44.553Z,6.85
2022-11-03T09:35:12.005Z,7.88
2022-11-03T09:37:38.109Z,7.25
2022-11-03T09:40:04.555Z,7.57
2022-11-03T09:42:34.403Z,6.82
2022-11-03T09:45:01.601Z,9.30
2022-11-03T09:47:34.179Z,6.07
2022-11-03T09:50:00.965Z,6.63
2022-11-03T09:52:27.275Z,8.52
2022-11-03T09:54:55.673Z,10.20
2022-11-03T09:57:23.039Z,6.80
2022-11-03T09:59:50.793Z,8.77
2022-11-03T10:02:29.846Z,8.57
2022-11-03T10:04:58.115Z,13.95
2022-11-03T10:07:26.819Z,8.50
2022-11-03T10:09:54.715Z,6.25
2022-11-03T10:12:24.061Z,8.23
2022-11-03T10:14:51.071Z,6.57
2022-11-03T10:17:25.911Z,6.00
2022-11-03T10:19:55.660Z,4.30
2022-11-03T10:22:22.403Z,5.13
2022-11-03T10:24:48.995Z,7.07
2022-11-03T10:27:23.582Z,6.97
2022-11-03T10:30:08.210Z,6.83
2022-11-03T10:32:34.925Z,7.38
2022-11-03T10:35:01.150Z,4.93
2022-11-03T10:37:28.383Z,9.60
2022-11-03T10:39:56.789Z,6.45
2022-11-03T10:42:35.036Z,10.57
2022-11-03T10:45:15.620Z,5.97
2022-11-03T10:47:41.747Z,7.15
2022-11-03T10:50:25.795Z,5.50
2022-11-03T10:52:52.409Z,7.20
2022-11-03T10:55:24.862Z,6.05
2022-11-03T10:57:53.375Z,7.15
2022-11-03T11:00:19.927Z,10.27
2022-11-03T11:02:47.766Z,7.38
2022-11-03T11:05:21.628Z,6.10
2022-11-03T11:07:51.324Z,6.43
2022-11-03T11:10:26.916Z,8.20
2022-11-03T11:13:05.385Z,6.07
2022-11-03T11:15:58.064Z,4.57
2022-11-03T11:18:30.390Z,9.15
2022-11-03T11:20:57.440Z,6.78
2022-11-03T11:23:29.443Z,6.53
2022-11-03T11:26:05.931Z,8.60
2022-11-03T11:28:32.116Z,10.05
2022-11-03T11:30:58.946Z,6.63
2022-11-03T11:33:27.612Z,6.05
2022-11-03T11:35:58.773Z,5.38
2022-11-03T11:38:52.292Z,7.05
2022-11-03T11:41:20.850Z,5.50
2022-11-03T11:43:46.973Z,6.53
2022-11-03T11:46:22.326Z,8.27
2022-11-03T11:48:57.231Z,6.43
2022-11-03T11:51:24.716Z,5.10
2022-11-03T11:54:10.008Z,6.47
2022-11-03T11:56:44.163Z,7.00
2022-11-03T11:59:25.675Z,5.97
2022-11-03T12:01:54.945Z,5.65
2022-11-03T12:04:33.202Z,5.30
2022-11-03T12:06:59.610Z,6.38
2022-11-03T12:09:30.521Z,2.97
2022-11-03T12:12:00.795Z,5.15
2022-11-03T12:14:38.458Z,5.53
2022-11-03T12:17:17.172Z,5.28
2022-11-03T12:19:45.009Z,6.22
2022-11-03T12:22:32.212Z,6.47
2022-11-03T12:25:04.767Z,7.65
2022-11-03T12:27:30.813Z,7.28
2022-11-03T12:29:59.594Z,8.13
2022-11-03T12:32:33.452Z,6.90
2022-11-03T12:35:02.076Z,6.78
2022-11-03T12:37:28.239Z,7.43
2022-11-03T12:39:54.341Z,7.45
2022-11-03T12:42:21.211Z,7.03
2022-11-03T12:44:47.341Z,5.72
2022-11-03T12:47:13.485Z,4.13
2022-11-03T12:49:39.624Z,7.10
2022-11-03T12:52:08.240Z,6.68
2022-11-03T12:54:34.625Z,6.63
2022-11-03T12:57:00.898Z,6.78
2022-11-03T12:59:27.025Z,8.30
2022-11-03T13:01:53.241Z,6.75
2022-11-03T13:04:19.445Z,6.55
2022-11-03T13:06:45.856Z,5.65
2022-11-03T13:09:11.993Z,9.20
2022-11-03T13:11:56.814Z,8.52
2022-11-03T13:14:22.987Z,9.10
2022-11-03T13:16:49.098Z,11.05
2022-11-03T13:19:15.603Z,6.43
2022-11-03T13:21:42.376Z,8.05
2022-11-03T13:24:08.492Z,12.73
2022-11-03T13:26:34.701Z,4.60
2022-11-03T13:29:01.020Z,6.65
2022-11-03T13:31:27.240Z,6.55
2022-11-03T13:33:53.377Z,7.45
2022-11-03T13:36:19.563Z,5.18
2022-11-03T13:38:45.910Z,8.68
2022-11-03T13:41:12.061Z,9.20
2022-11-03T13:43:38.174Z,7.18
2022-11-03T13:46:05.283Z,9.85
2022-11-03T13:51:19.072Z,6.55
2022-11-03T13:56:32.121Z,5.55
2022-11-03T14:01:45.088Z,10.20
2022-11-03T14:06:58.126Z,8.40
2022-11-03T14:09:24.992Z,6.88
2022-11-03T14:12:09.959Z,8.20
2022-11-03T14:14:36.088Z,8.93
2022-11-03T14:17:02.218Z,7.13
2022-11-03T14:19:36.468Z,11.88
2022-11-03T14:22:02.868Z,6.07
2022-11-03T14:24:29.000Z,5.65
2022-11-03T14:26:55.122Z,8.02
2022-11-03T14:29:21.281Z,8.85
2022-11-03T14:31:47.409Z,8.85
2022-11-03T14:34:13.567Z,9.18
2022-11-03T14:36:39.715Z,10.30
2022-11-03T14:39:05.896Z,12.35
2022-11-03T14:41:50.746Z,11.20
2022-11-03T14:44:16.862Z,8.98
2022-11-03T14:46:43.029Z,9.93
2022-11-03T14:49:09.264Z,6.40
2022-11-03T14:51:35.670Z,9.32
2022-11-03T14:54:01.789Z,7.68
2022-11-03T14:56:27.910Z,9.75
2022-11-03T14:58:54.041Z,10.38
2022-11-03T15:01:20.873Z,9.43
2022-11-03T15:03:47.356Z,10.88
2022-11-03T15:06:13.807Z,9.95
2022-11-03T15:08:39.901Z,10.00
2022-11-03T15:11:10.645Z,8.82
2022-11-03T15:13:41.723Z,10.88
2022-11-03T15:16:12.108Z,16.33
2022-11-03T15:18:38.208Z,16.92
2022-11-03T15:21:04.938Z,13.98
2022-11-03T15:26:17.147Z,9.50
2022-11-03T15:28:43.249Z,13.05
2022-11-03T15:31:09.421Z,13.45
2022-11-03T15:33:35.516Z,9.38
2022-11-03T15:36:01.785Z,11.80
2022-11-03T15:38:27.934Z,13.27
2022-11-03T15:40:54.039Z,17.85
2022-11-03T15:43:20.159Z,11.52
2022-11-03T15:45:46.262Z,12.73
2022-11-03T15:48:12.741Z,10.10
2022-11-03T15:50:39.430Z,10.02
2022-11-03T15:53:05.545Z,13.23
2022-11-03T15:55:31.663Z,11.88
2022-11-03T15:57:57.771Z,12.07
2022-11-03T16:00:23.912Z,11.93
2022-11-03T16:02:50.225Z,10.95
2022-11-03T16:05:19.771Z,11.98
2022-11-03T16:07:49.989Z,7.97
2022-11-03T16:10:16.160Z,15.43
2022-11-03T16:12:43.998Z,14.45
2022-11-03T16:45:39.835Z,8.35
2022-11-03T16:48:07.070Z,9.20
2022-11-03T16:50:33.878Z,13.60
2022-11-03T16:52:59.983Z,11.82
2022-11-03T16:55:26.166Z,10.70
2022-11-03T16:57:52.255Z,19.13
2022-11-03T17:00:19.905Z,15.63
2022-11-03T17:02:47.069Z,11.48
2022-11-03T17:05:14.231Z,7.88
2022-11-03T17:07:40.315Z,10.20
2022-11-03T17:10:08.120Z,8.95
2022-11-03T17:12:34.246Z,12.00
2022-11-03T17:15:00.384Z,12.73
2022-11-03T17:17:26.539Z,11.18
2022-11-03T17:19:52.643Z,12.15
2022-11-03T17:22:20.292Z,11.27
2022-11-03T17:24:46.385Z,9.80
2022-11-03T17:27:16.640Z,12.15
2022-11-03T17:29:47.908Z,9.50
2022-11-03T17:32:18.603Z,9.93
2022-11-03T17:34:44.701Z,11.23
2022-11-03T17:37:10.923Z,11.15
2022-11-03T17:39:39.118Z,14.35
2022-11-03T17:42:18.020Z,9.82
2022-11-03T17:44:45.791Z,12.60
2022-11-03T17:47:11.904Z,10.05
2022-11-03T17:49:38.133Z,11.18
2022-11-03T17:52:04.771Z,13.43
2022-11-03T17:54:32.015Z,9.63
2022-11-03T17:57:00.241Z,8.52
2022-11-03T17:59:26.537Z,10.82
2022-11-03T18:01:53.168Z,8.75
2022-11-03T18:04:19.395Z,10.07
2022-11-03T18:06:45.560Z,14.23
2022-11-03T18:09:11.668Z,12.07
2022-11-03T18:12:18.583Z,11.15
2022-11-03T18:14:44.677Z,13.35
2022-11-03T18:17:10.810Z,12.75
2022-11-03T18:19:36.912Z,14.18
2022-11-03T18:22:03.254Z,11.77
2022-11-03T18:24:29.374Z,8.35
2022-11-03T18:26:55.543Z,9.25
2022-11-03T18:29:21.646Z,8.32
2022-11-03T18:31:50.491Z,11.68
2022-11-03T18:34:24.021Z,9.00
2022-11-03T18:36:50.401Z,10.80
2022-11-03T18:39:23.113Z,10.50
2022-11-03T18:41:49.255Z,13.57
2022-11-03T18:44:25.195Z,9.55
2022-11-03T18:46:53.085Z,11.43
2022-11-03T18:49:19.798Z,8.60
2022-11-03T18:52:02.894Z,10.18
2022-11-03T18:54:31.499Z,11.90
2022-11-03T18:56:58.122Z,10.65
2022-11-03T18:59:37.674Z,10.27
2022-11-03T19:02:15.089Z,6.95
2022-11-03T19:04:41.268Z,11.27
2022-11-03T19:07:11.667Z,8.85
2022-11-03T19:09:37.819Z,10.55
2022-11-03T19:12:04.195Z,9.70
2022-11-03T19:14:33.180Z,11.77
2022-11-03T19:17:21.808Z,11.40
2022-11-03T19:19:47.928Z,11.70
2022-11-03T19:22:20.579Z,9.73
2022-11-03T19:24:46.969Z,8.55
2022-11-03T19:27:27.351Z,9.93
2022-11-03T19:29:54.653Z,11.40
2022-11-03T19:32:32.826Z,11.60
2022-11-03T19:35:14.637Z,11.55
2022-11-03T19:37:40.836Z,11.38
2022-11-03T19:40:09.302Z,8.15
2022-11-03T19:42:37.114Z,12.90
2022-11-03T19:45:07.689Z,8.82
2022-11-03T19:47:47.863Z,8.88
2022-11-03T19:50:26.365Z,8.95
2022-11-03T19:53:02.599Z,8.60
2022-11-03T19:55:32.496Z,10.18
2022-11-03T19:58:12.444Z,13.32
2022-11-03T20:00:38.545Z,10.30
2022-11-03T20:03:04.750Z,14.88
2022-11-03T20:05:31.342Z,11.38
2022-11-03T20:08:03.591Z,14.55
2022-11-03T20:10:31.869Z,10.43
2022-11-03T20:13:01.615Z,13.45
2022-11-03T20:15:27.718Z,9.40
2022-11-03T20:17:54.197Z,12.77
2022-11-03T20:20:26.554Z,12.48
2022-11-03T20:22:55.704Z,8.70
2022-11-03T20:25:27.993Z,13.35
2022-11-03T20:27:56.230Z,10.05
2022-11-03T20:30:23.915Z,10.60
2022-11-03T20:32:51.071Z,11.68
2022-11-03T20:35:23.036Z,13.90
2022-11-03T20:37:53.272Z,12.63
2022-11-03T20:40:22.703Z,10.52
2022-11-03T20:42:55.441Z,12.57
2022-11-03T20:45:23.252Z,12.50
2022-11-03T20:47:50.112Z,14.30
2022-11-03T20:50:20.818Z,12.93
2022-11-03T20:52:48.140Z,11.82
2022-11-03T20:55:20.064Z,13.18
2022-11-03T20:57:47.161Z,14.07
2022-11-03T21:00:21.764Z,16.45
2022-11-03T21:02:49.580Z,11.27
2022-11-03T21:05:27.144Z,12.27
2022-11-03T21:07:55.083Z,10.32
2022-11-03T21:10:23.246Z,11.93
2022-11-03T21:12:49.817Z,16.48
2022-11-03T21:15:48.160Z,10.65
2022-11-03T21:18:42.396Z,18.65
2022-11-03T21:21:11.157Z,12.02
2022-11-03T21:23:37.618Z,11.10
2022-11-03T21:26:03.827Z,13.35
2022-11-03T21:28:30.086Z,14.40
2022-11-03T21:30:56.810Z,14.20
2022-11-03T21:33:23.691Z,14.45
2022-11-03T21:35:50.659Z,14.30
2022-11-03T21:38:17.847Z,14.85
2022-11-03T21:40:56.321Z,12.77
2022-11-03T21:43:41.429Z,14.95
2022-11-03T21:46:09.632Z,12.43
2022-11-03T21:48:55.714Z,12.63
2022-11-03T21:51:22.331Z,16.00
2022-11-03T21:53:49.144Z,13.38
2022-11-03T21:56:16.002Z,15.27
2022-11-03T21:58:42.791Z,18.30
2022-11-03T22:01:09.733Z,12.73
2022-11-03T22:03:37.167Z,13.95
2022-11-03T22:06:08.649Z,13.30
2022-11-03T22:08:35.748Z,14.50
2022-11-03T22:11:21.345Z,16.65
2022-11-03T22:13:54.220Z,17.77
2022-11-03T22:16:39.487Z,14.45
2022-11-03T22:19:38.410Z,16.77
2022-11-03T22:22:33.875Z,17.20
2022-11-03T22:25:19.095Z,17.73
2022-11-03T22:27:45.393Z,15.77
2022-11-03T22:30:30.337Z,19.58
2022-11-03T22:32:57.893Z,18.05
2022-11-03T22:35:43.812Z,18.83
2022-11-03T22:41:00.141Z,16.67
2022-11-03T22:43:45.191Z,15.80
2022-11-03T22:46:13.131Z,17.83
2022-11-03T22:48:39.881Z,20.50
2022-11-03T22:51:06.085Z,15.73
2022-11-03T22:53:52.713Z,17.85
2022-11-03T22:56:19.988Z,19.55
2022-11-03T22:58:46.190Z,15.90
2022-11-03T23:01:15.610Z,17.67
2022-11-03T23:03:44.461Z,18.95
2022-11-03T23:06:13.642Z,15.57
2022-11-03T23:08:42.418Z,14.68
2022-11-03T23:11:20.706Z,15.32
2022-11-03T23:13:52.281Z,17.10
2022-11-03T23:16:21.122Z,16.83
2022-11-03T23:19:06.571Z,21.63
2022-11-03T23:21:34.142Z,18.20
2022-11-03T23:24:19.061Z,18.02
2022-11-03T23:26:45.879Z,15.73
2022-11-03T23:29:13.520Z,17.25
2022-11-03T23:31:41.169Z,18.80
2022-11-03T23:34:08.974Z,16.98
2022-11-03T23:36:35.327Z,17.13
2022-11-03T23:39:02.169Z,16.15
2022-11-03T23:41:28.977Z,17.50
2022-11-03T23:43:56.180Z,18.67
2022-11-03T23:46:43.515Z,15.50
2022-11-03T23:49:10.214Z,19.88
2022-11-03T23:51:37.127Z,16.63
2022-11-03T23:54:05.120Z,19.80
2022-11-03T23:56:53.980Z,18.42
2022-11-03T23:59:20.463Z,17.27
